createdAt,value
2022-12-07T00:01:48.357Z,5.64
2022-12-07T00:04:21.325Z,5.68
2022-12-07T00:06:53.860Z,5.62
2022-12-07T00:09:21.059Z,5.60
2022-12-07T00:11:52.900Z,5.63
2022-12-07T00:14:21.989Z,5.64
2022-12-07T00:16:53.707Z,5.67
2022-12-07T00:19:21.695Z,5.62
2022-12-07T00:21:49.100Z,5.58
2022-12-07T00:24:17.042Z,5.47
2022-12-07T00:26:45.559Z,5.51
2022-12-07T00:29:21.976Z,5.49
2022-12-07T00:31:54.253Z,5.38
2022-12-07T00:34:22.719Z,5.45
2022-12-07T00:36:50.375Z,5.52
2022-12-07T00:39:17.950Z,5.48
2022-12-07T00:41:44.885Z,5.50
2022-12-07T00:44:12.187Z,5.47
2022-12-07T00:46:39.094Z,5.51
2022-12-07T00:49:06.237Z,5.51
2022-12-07T00:51:33.240Z,5.44
2022-12-07T00:54:00.401Z,5.43
2022-12-07T00:56:29.676Z,5.49
2022-12-07T00:59:05.666Z,5.44
2022-12-07T01:01:38.135Z,5.46
2022-12-07T01:04:06.825Z,5.52
2022-12-07T01:06:34.371Z,5.56
2022-12-07T01:09:02.940Z,5.55
2022-12-07T01:11:39.042Z,5.54
2022-12-07T01:14:06.429Z,5.54
2022-12-07T01:16:34.639Z,5.58
2022-12-07T01:19:03.008Z,5.58
2022-12-07T01:21:40.389Z,5.60
2022-12-07T01:24:13.400Z,5.63
2022-12-07T01:26:46.418Z,5.64
2022-12-07T01:29:14.218Z,5.62
2022-12-07T01:31:41.626Z,5.65
2022-12-07T01:34:09.819Z,5.63
2022-12-07T01:36:37.411Z,5.62
2022-12-07T01:39:20.676Z,5.64
2022-12-07T01:41:47.732Z,5.66
2022-12-07T01:44:24.852Z,5.69
2022-12-07T01:47:04.316Z,5.64
2022-12-07T01:49:47.355Z,5.69
2022-12-07T01:52:35.630Z,5.73
2022-12-07T01:55:12.748Z,5.78
2022-12-07T01:57:46.592Z,5.77
2022-12-07T02:00:14.684Z,5.79
2022-12-07T02:03:01.760Z,5.74
2022-12-07T02:05:30.079Z,5.71
2022-12-07T02:08:01.043Z,5.74
2022-12-07T02:10:36.256Z,5.66
2022-12-07T02:13:18.158Z,5.53
2022-12-07T02:16:20.014Z,5.56
2022-12-07T02:19:00.684Z,5.63
2022-12-07T02:22:00.011Z,5.56
2022-12-07T02:24:55.655Z,5.53
2022-12-07T02:27:42.187Z,5.58
2022-12-07T02:30:16.370Z,5.52
2022-12-07T02:32:48.238Z,5.58
2022-12-07T02:35:49.340Z,5.52
2022-12-07T02:38:28.821Z,5.49
2022-12-07T02:41:03.813Z,5.56
2022-12-07T02:43:53.203Z,5.59
2022-12-07T02:47:06.482Z,5.56
2022-12-07T02:49:34.823Z,5.53
2022-12-07T02:52:01.979Z,5.52
2022-12-07T02:54:29.107Z,5.48
2022-12-07T02:57:20.725Z,5.43
2022-12-07T03:00:08.699Z,5.39
2022-12-07T03:02:59.960Z,5.33
2022-12-07T03:06:02.524Z,5.33
2022-12-07T03:09:03.231Z,5.31
2022-12-07T03:11:54.848Z,5.37
2022-12-07T03:14:37.012Z,5.42
2022-12-07T03:17:21.874Z,5.45
2022-12-07T03:20:04.137Z,5.44
2022-12-07T03:22:36.819Z,5.47
2022-12-07T03:25:27.655Z,5.49
2022-12-07T03:28:07.837Z,5.48
2022-12-07T03:30:50.665Z,5.45
2022-12-07T03:33:41.547Z,5.41
2022-12-07T03:36:43.476Z,5.43
2022-12-07T03:39:59.428Z,5.41
2022-12-07T03:42:26.565Z,5.44
2022-12-07T03:44:54.446Z,5.48
2022-12-07T03:47:40.109Z,5.48
2022-12-07T03:50:32.705Z,5.48
2022-12-07T03:53:15.357Z,5.51
2022-12-07T03:55:48.441Z,5.45
2022-12-07T03:58:25.355Z,5.45
2022-12-07T04:00:53.093Z,5.40
2022-12-07T04:03:20.285Z,5.33
2022-12-07T04:05:47.800Z,5.36
2022-12-07T04:08:14.673Z,5.27
2022-12-07T04:10:41.913Z,5.28
2022-12-07T04:13:09.169Z,5.23
2022-12-07T04:15:36.656Z,5.23
2022-12-07T04:18:06.573Z,5.21
2022-12-07T04:20:33.716Z,5.26
2022-12-07T04:23:00.950Z,5.23
2022-12-07T04:25:27.993Z,5.19
2022-12-07T04:27:55.068Z,5.22
2022-12-07T04:30:22.160Z,5.18
2022-12-07T04:32:49.193Z,5.17
2022-12-07T04:35:16.699Z,5.14
2022-12-07T04:37:43.956Z,5.14
2022-12-07T04:40:12.404Z,5.20
2022-12-07T04:42:39.700Z,5.21
2022-12-07T04:45:08.004Z,5.21
2022-12-07T04:47:34.904Z,5.16
2022-12-07T04:50:02.379Z,5.14
2022-12-07T04:52:29.549Z,5.04
2022-12-07T04:54:56.854Z,5.07
2022-12-07T04:57:24.116Z,5.03
2022-12-07T04:59:51.621Z,5.00
2022-12-07T05:02:19.140Z,5.00
2022-12-07T05:04:46.735Z,4.98
2022-12-07T05:07:14.236Z,4.98
2022-12-07T05:09:41.809Z,4.93
2022-12-07T05:12:09.426Z,4.92
2022-12-07T05:14:36.963Z,4.82
2022-12-07T05:17:07.182Z,4.77
2022-12-07T05:19:34.365Z,4.82
2022-12-07T05:22:01.139Z,4.82
2022-12-07T05:24:28.227Z,4.78
2022-12-07T05:26:55.070Z,4.70
2022-12-07T05:29:22.315Z,4.62
2022-12-07T05:31:49.797Z,4.61
2022-12-07T05:34:17.607Z,4.58
2022-12-07T05:36:44.937Z,4.57
2022-12-07T05:39:14.812Z,4.52
2022-12-07T05:42:00.435Z,4.52
2022-12-07T05:44:28.201Z,4.51
2022-12-07T05:46:56.744Z,4.52
2022-12-07T05:49:27.779Z,4.54
2022-12-07T05:51:55.070Z,4.49
2022-12-07T05:54:22.376Z,4.39
2022-12-07T05:56:51.917Z,4.39
2022-12-07T05:59:25.055Z,4.39
2022-12-07T06:02:09.009Z,4.40
2022-12-07T06:04:40.194Z,4.30
2022-12-07T06:07:08.510Z,4.32
2022-12-07T06:09:37.204Z,4.28
2022-12-07T06:12:25.669Z,4.29
2022-12-07T06:14:52.792Z,4.29
2022-12-07T06:17:19.682Z,4.29
2022-12-07T06:19:46.885Z,4.32
2022-12-07T06:22:14.467Z,4.29
2022-12-07T06:24:41.719Z,4.28
2022-12-07T06:27:11.707Z,4.29
2022-12-07T06:29:38.989Z,4.24
2022-12-07T06:32:06.324Z,4.18
2022-12-07T06:34:33.670Z,4.13
2022-12-07T06:37:00.566Z,4.16
2022-12-07T06:39:30.140Z,4.19
2022-12-07T06:41:58.252Z,4.16
2022-12-07T06:44:27.002Z,4.17
2022-12-07T06:47:18.733Z,4.11
2022-12-07T06:49:45.237Z,4.05
2022-12-07T06:52:12.273Z,4.08
2022-12-07T06:54:39.491Z,4.13
2022-12-07T06:57:06.326Z,4.12
2022-12-07T06:59:33.520Z,4.10
2022-12-07T07:02:00.616Z,4.03
2022-12-07T07:04:27.794Z,4.04
2022-12-07T07:06:59.784Z,4.10
2022-12-07T07:09:29.637Z,4.12
2022-12-07T07:12:00.086Z,4.11
2022-12-07T07:14:27.729Z,4.20
2022-12-07T07:16:55.354Z,4.24
2022-12-07T07:19:23.202Z,4.12
2022-12-07T07:21:50.475Z,4.19
2022-12-07T07:24:18.185Z,4.13
2022-12-07T07:26:45.702Z,4.20
2022-12-07T07:29:13.120Z,4.14
2022-12-07T07:31:40.693Z,4.07
2022-12-07T07:34:08.757Z,4.05
2022-12-07T07:36:38.007Z,3.91
2022-12-07T07:39:05.991Z,3.91
2022-12-07T07:41:33.351Z,3.90
2022-12-07T07:44:00.137Z,3.90
2022-12-07T07:46:27.302Z,3.82
2022-12-07T07:48:54.286Z,3.77
2022-12-07T07:51:21.682Z,3.81
2022-12-07T07:53:48.946Z,3.83
2022-12-07T07:56:16.562Z,3.82
2022-12-07T07:58:44.514Z,3.84
2022-12-07T08:01:11.840Z,3.88
2022-12-07T08:03:41.838Z,4.00
2022-12-07T08:06:09.271Z,4.02
2022-12-07T08:08:36.314Z,4.07
2022-12-07T08:11:07.558Z,4.13
2022-12-07T08:13:43.203Z,4.14
2022-12-07T08:16:12.506Z,4.10
2022-12-07T08:18:41.355Z,4.07
2022-12-07T08:21:14.760Z,4.22
2022-12-07T08:23:43.212Z,4.27
2022-12-07T08:26:14.428Z,4.33
2022-12-07T08:28:42.563Z,4.27
2022-12-07T08:31:19.228Z,4.36
2022-12-07T08:33:48.988Z,4.34
2022-12-07T08:36:17.360Z,4.29
2022-12-07T08:39:01.420Z,4.29
2022-12-07T08:41:35.007Z,4.26
2022-12-07T08:44:01.908Z,4.29
2022-12-07T08:46:54.518Z,4.37
2022-12-07T08:49:37.578Z,4.37
2022-12-07T08:52:06.901Z,4.41
2022-12-07T08:54:41.147Z,4.48
2022-12-07T08:57:10.562Z,4.45
2022-12-07T08:59:38.517Z,4.54
2022-12-07T09:02:06.604Z,4.56
2022-12-07T09:04:33.648Z,4.42
2022-12-07T09:07:01.069Z,4.50
2022-12-07T09:09:28.061Z,4.50
2022-12-07T09:11:55.256Z,4.35
2022-12-07T09:14:22.795Z,4.50
2022-12-07T09:16:49.898Z,4.63
2022-12-07T09:19:17.155Z,4.61
2022-12-07T09:21:44.509Z,4.60
2022-12-07T09:24:14.233Z,4.54
2022-12-07T09:26:41.613Z,4.69
2022-12-07T09:29:08.723Z,4.72
2022-12-07T09:31:38.824Z,4.89
2022-12-07T09:34:15.137Z,4.97
2022-12-07T09:36:43.734Z,5.00
2022-12-07T09:39:11.240Z,4.88
2022-12-07T09:41:43.680Z,5.09
2022-12-07T09:44:18.144Z,5.16
2022-12-07T09:46:47.030Z,5.01
2022-12-07T09:49:23.354Z,4.94
2022-12-07T09:52:04.173Z,4.87
2022-12-07T09:54:32.654Z,4.75
2022-12-07T09:57:00.624Z,4.87
2022-12-07T09:59:30.223Z,4.95
2022-12-07T10:02:39.171Z,5.07
2022-12-07T10:05:19.067Z,5.08
2022-12-07T10:07:50.559Z,4.98
2022-12-07T10:10:27.263Z,4.97
2022-12-07T10:13:10.105Z,5.08
2022-12-07T10:16:05.233Z,5.21
2022-12-07T10:18:42.760Z,5.26
2022-12-07T10:21:12.749Z,5.11
2022-12-07T10:24:20.449Z,5.02
2022-12-07T10:26:47.839Z,5.13
2022-12-07T10:29:34.362Z,5.07
2022-12-07T10:32:17.612Z,5.27
2022-12-07T10:34:51.906Z,5.35
2022-12-07T10:37:21.420Z,5.29
2022-12-07T10:39:58.932Z,5.17
2022-12-07T10:42:33.789Z,5.16
2022-12-07T10:45:18.986Z,5.21
2022-12-07T10:48:11.664Z,5.17
2022-12-07T10:51:19.739Z,5.06
2022-12-07T10:54:12.080Z,5.26
2022-12-07T10:57:13.530Z,5.29
2022-12-07T11:00:04.722Z,5.38
2022-12-07T11:03:09.666Z,5.36
2022-12-07T11:05:36.661Z,5.38
2022-12-07T11:08:14.551Z,5.33
2022-12-07T11:10:47.451Z,5.45
2022-12-07T11:13:44.126Z,5.37
2022-12-07T11:16:29.403Z,5.30
2022-12-07T11:19:28.421Z,5.30
2022-12-07T11:22:30.633Z,5.29
2022-12-07T11:25:32.302Z,5.25
2022-12-07T11:28:45.278Z,5.17
2022-12-07T11:32:02.443Z,5.31
2022-12-07T11:34:45.930Z,5.34
2022-12-07T11:37:24.861Z,5.30
2022-12-07T11:40:05.344Z,5.22
2022-12-07T11:42:51.353Z,5.30
2022-12-07T11:45:38.824Z,5.37
2022-12-07T11:48:16.766Z,5.47
2022-12-07T11:50:58.382Z,5.45
2022-12-07T11:53:47.851Z,5.51
2022-12-07T11:56:23.990Z,5.47
2022-12-07T11:59:24.805Z,5.35
2022-12-07T12:02:00.239Z,5.51
2022-12-07T12:04:52.921Z,5.47
2022-12-07T12:10:36.369Z,5.55
2022-12-07T12:17:14.825Z,5.64
2022-12-07T12:20:27.506Z,5.65
2022-12-07T12:23:22.708Z,5.51
2022-12-07T12:26:09.140Z,5.63
2022-12-07T12:28:55.602Z,5.64
2022-12-07T12:31:23.100Z,5.74
2022-12-07T12:34:01.563Z,5.78
2022-12-07T12:36:47.301Z,5.73
2022-12-07T12:39:26.640Z,5.74
2022-12-07T12:41:59.486Z,5.69
2022-12-07T12:44:48.532Z,5.72
2022-12-07T12:47:56.560Z,5.81
2022-12-07T12:50:36.066Z,5.87
2022-12-07T12:53:28.667Z,5.83
2022-12-07T12:56:41.715Z,5.77
2022-12-07T12:59:38.741Z,5.67
2022-12-07T13:02:48.100Z,5.79
2022-12-07T13:05:15.400Z,5.66
2022-12-07T13:07:45.991Z,5.69
2022-12-07T13:10:31.666Z,5.62
2022-12-07T13:13:21.186Z,5.75
2022-12-07T13:16:16.544Z,5.73
2022-12-07T13:18:44.785Z,5.77
2022-12-07T13:21:12.432Z,5.76
2022-12-07T13:23:46.112Z,5.78
2022-12-07T13:26:22.335Z,5.83
2022-12-07T13:29:11.779Z,5.82
2022-12-07T13:31:45.784Z,5.96
2022-12-07T13:34:34.440Z,5.99
2022-12-07T13:37:14.035Z,6.01
2022-12-07T13:39:56.342Z,6.07
2022-12-07T13:42:35.343Z,6.06
2022-12-07T13:45:49.490Z,6.07
2022-12-07T13:48:34.013Z,6.13
2022-12-07T13:51:05.008Z,6.18
2022-12-07T13:53:34.906Z,6.13
2022-12-07T13:56:03.134Z,6.12
2022-12-07T13:58:34.096Z,6.05
2022-12-07T14:01:01.873Z,6.11
2022-12-07T14:03:35.030Z,5.95
2022-12-07T14:06:21.686Z,5.99
2022-12-07T14:08:52.074Z,6.10
2022-12-07T14:11:22.404Z,6.14
2022-12-07T14:14:04.827Z,6.12
2022-12-07T14:16:36.714Z,6.17
2022-12-07T14:19:27.029Z,6.07
2022-12-07T14:22:22.817Z,6.11
2022-12-07T14:24:51.616Z,6.05
2022-12-07T14:27:24.167Z,6.03
2022-12-07T14:29:52.957Z,6.01
2022-12-07T14:32:32.154Z,5.97
2022-12-07T14:35:12.202Z,5.84
2022-12-07T14:37:42.779Z,5.72
2022-12-07T14:40:20.059Z,5.60
2022-12-07T14:43:17.238Z,5.71
2022-12-07T14:45:44.850Z,5.74
2022-12-07T14:54:01.690Z,5.55
2022-12-07T14:56:29.572Z,5.43
2022-12-07T14:58:57.370Z,5.45
2022-12-07T15:01:25.103Z,5.38
2022-12-07T15:03:53.339Z,5.39
2022-12-07T15:06:22.276Z,5.48
2022-12-07T15:08:49.637Z,5.42
2022-12-07T15:11:18.947Z,5.39
2022-12-07T15:14:04.946Z,5.40
2022-12-07T15:17:06.417Z,5.32
2022-12-07T15:19:28.869Z,5.37
2022-12-07T15:21:57.759Z,5.36
2022-12-07T15:24:25.365Z,5.40
2022-12-07T15:26:53.277Z,5.40
2022-12-07T15:29:23.137Z,5.35
2022-12-07T15:31:57.821Z,5.40
2022-12-07T15:34:36.186Z,5.38
2022-12-07T15:37:05.274Z,5.34
2022-12-07T15:39:32.756Z,5.39
2022-12-07T15:42:00.198Z,5.29
2022-12-07T15:44:46.097Z,5.35
2022-12-07T15:47:14.383Z,5.36
2022-12-07T15:49:42.461Z,5.41
2022-12-07T15:52:10.044Z,5.25
2022-12-07T15:54:41.255Z,5.25
2022-12-07T15:57:08.941Z,5.28
2022-12-07T15:59:38.012Z,5.20
2022-12-07T16:02:05.463Z,5.27
2022-12-07T16:04:33.278Z,5.24
2022-12-07T16:07:00.504Z,5.22
2022-12-07T16:09:28.155Z,5.30
2022-12-07T16:11:55.922Z,5.28
2022-12-07T16:14:23.241Z,5.24
2022-12-07T16:16:50.716Z,5.28
2022-12-07T16:19:18.570Z,5.26
2022-12-07T16:21:46.953Z,5.28
2022-12-07T16:24:16.242Z,5.29
2022-12-07T16:26:49.851Z,5.18
2022-12-07T16:29:24.000Z,5.17
2022-12-07T16:31:52.787Z,5.16
2022-12-07T16:34:20.501Z,5.19
2022-12-07T16:37:03.882Z,5.09
2022-12-07T16:39:35.027Z,5.11
2022-12-07T16:42:02.826Z,5.04
2022-12-07T16:44:31.625Z,5.08
2022-12-07T16:46:58.507Z,5.10
2022-12-07T16:49:25.727Z,5.04
2022-12-07T16:52:14.943Z,4.92
2022-12-07T16:54:41.300Z,4.95
2022-12-07T16:57:08.833Z,4.98
2022-12-07T16:59:36.869Z,5.02
2022-12-07T17:02:04.892Z,5.11
2022-12-07T17:04:33.233Z,5.14
2022-12-07T17:07:00.843Z,5.15
2022-12-07T17:09:30.040Z,5.06
2022-12-07T17:11:57.571Z,5.12
2022-12-07T17:14:43.875Z,5.12
2022-12-07T17:17:11.686Z,4.99
2022-12-07T17:19:39.638Z,5.03
2022-12-07T17:22:07.783Z,5.07
2022-12-07T17:24:36.545Z,5.04
2022-12-07T17:27:04.574Z,5.01
2022-12-07T17:29:32.391Z,5.02
2022-12-07T17:32:03.098Z,4.97
2022-12-07T17:34:30.600Z,4.94
2022-12-07T17:36:57.683Z,4.99
2022-12-07T17:39:25.421Z,5.03
2022-12-07T17:42:13.987Z,5.06
2022-12-07T17:44:44.753Z,5.02
2022-12-07T17:47:12.191Z,5.06
2022-12-07T17:49:39.683Z,5.11
2022-12-07T17:52:26.169Z,5.03
2022-12-07T17:54:54.655Z,4.95
2022-12-07T17:57:22.670Z,5.03
2022-12-07T17:59:52.620Z,5.04
2022-12-07T18:02:20.762Z,5.07
2022-12-07T18:04:48.919Z,5.14
2022-12-07T18:07:16.514Z,5.20
2022-12-07T18:09:44.319Z,5.11
2022-12-07T18:12:11.772Z,5.09
2022-12-07T18:14:39.174Z,5.11
2022-12-07T18:17:06.852Z,5.14
2022-12-07T18:19:37.192Z,5.21
2022-12-07T18:22:05.236Z,5.25
2022-12-07T18:24:36.954Z,5.23
2022-12-07T18:27:08.017Z,5.27
2022-12-07T18:29:36.507Z,5.23
2022-12-07T18:32:05.270Z,5.21
2022-12-07T18:34:33.422Z,5.20
2022-12-07T18:37:03.407Z,5.23
2022-12-07T18:39:34.002Z,5.25
2022-12-07T18:42:09.152Z,5.13
2022-12-07T18:44:36.339Z,5.14
2022-12-07T18:47:03.365Z,5.13
2022-12-07T18:49:30.938Z,5.10
2022-12-07T18:51:58.305Z,4.91
2022-12-07T18:54:26.054Z,4.96
2022-12-07T18:56:57.055Z,4.97
2022-12-07T18:59:43.129Z,5.02
2022-12-07T19:02:12.292Z,4.98
2022-12-07T19:04:40.625Z,4.99
2022-12-07T19:07:08.381Z,4.88
2022-12-07T19:09:35.888Z,5.02
2022-12-07T19:12:06.360Z,5.03
2022-12-07T19:14:37.785Z,5.16
2022-12-07T19:17:13.196Z,5.15
2022-12-07T19:19:48.379Z,5.07
2022-12-07T19:22:21.078Z,5.09
2022-12-07T19:24:56.739Z,5.15
2022-12-07T19:27:25.119Z,5.06
2022-12-07T19:29:52.723Z,5.10
2022-12-07T19:32:20.469Z,5.06
2022-12-07T19:34:48.952Z,5.08
2022-12-07T19:37:18.764Z,5.12
2022-12-07T19:39:48.464Z,5.08
2022-12-07T19:42:15.928Z,5.11
2022-12-07T19:44:44.429Z,5.07
2022-12-07T19:47:16.774Z,5.07
2022-12-07T19:49:45.859Z,5.03
2022-12-07T19:52:14.706Z,5.02
2022-12-07T19:54:41.886Z,5.04
2022-12-07T19:57:15.341Z,5.07
2022-12-07T19:59:44.712Z,5.07
2022-12-07T20:02:16.490Z,5.09
2022-12-07T20:04:45.741Z,5.11
2022-12-07T20:07:12.804Z,5.12
2022-12-07T20:09:40.203Z,5.15
2022-12-07T20:12:26.166Z,5.15
2022-12-07T20:14:54.108Z,5.19
2022-12-07T20:17:25.043Z,5.18
2022-12-07T20:19:52.855Z,5.19
2022-12-07T20:22:20.154Z,5.18
2022-12-07T20:24:47.819Z,5.18
2022-12-07T20:27:16.015Z,5.17
2022-12-07T20:29:44.086Z,5.12
2022-12-07T20:32:13.569Z,5.13
2022-12-07T20:34:40.854Z,5.08
2022-12-07T20:37:07.829Z,5.01
2022-12-07T20:39:35.025Z,5.00
2022-12-07T20:42:21.047Z,4.94
2022-12-07T20:44:48.949Z,4.77
2022-12-07T20:47:17.022Z,4.73
2022-12-07T20:49:45.099Z,4.75
2022-12-07T20:52:12.895Z,4.75
2022-12-07T20:54:41.036Z,4.74
2022-12-07T20:57:08.813Z,4.68
2022-12-07T20:59:41.382Z,4.62
2022-12-07T21:02:14.664Z,4.63
2022-12-07T21:04:43.209Z,4.68
2022-12-07T21:07:13.445Z,4.64
2022-12-07T21:09:40.543Z,4.61
2022-12-07T21:12:11.620Z,4.62
2022-12-07T21:14:44.449Z,4.63
2022-12-07T21:17:15.267Z,4.62
2022-12-07T21:19:42.316Z,4.60
2022-12-07T21:22:09.940Z,4.47
2022-12-07T21:24:39.593Z,4.43
2022-12-07T21:27:06.771Z,4.43
2022-12-07T21:29:43.787Z,4.45
2022-12-07T21:32:13.369Z,4.40
2022-12-07T21:34:40.716Z,4.36
2022-12-07T21:37:07.609Z,4.41
2022-12-07T21:39:34.764Z,4.47
2022-12-07T21:42:01.703Z,4.51
2022-12-07T21:44:28.907Z,4.54
2022-12-07T21:46:56.413Z,4.58
2022-12-07T21:49:23.982Z,4.55
2022-12-07T21:51:51.469Z,4.51
2022-12-07T21:54:22.882Z,4.41
2022-12-07T21:56:53.360Z,4.39
2022-12-07T21:59:21.536Z,4.44
2022-12-07T22:01:53.376Z,4.39
2022-12-07T22:04:26.700Z,4.34
2022-12-07T22:06:57.326Z,4.34
2022-12-07T22:09:27.777Z,4.33
2022-12-07T22:11:55.818Z,4.40
2022-12-07T22:14:42.363Z,4.40
2022-12-07T22:17:10.261Z,4.41
2022-12-07T22:19:38.430Z,4.46
2022-12-07T22:22:06.447Z,4.50
2022-12-07T22:24:34.870Z,4.40
2022-12-07T22:27:02.854Z,4.44
2022-12-07T22:29:30.966Z,4.46
2022-12-07T22:31:58.860Z,4.42
2022-12-07T22:34:26.932Z,4.40
2022-12-07T22:36:55.025Z,4.39
2022-12-07T22:39:23.162Z,4.24
2022-12-07T22:41:52.761Z,4.24
2022-12-07T22:44:20.047Z,4.26
2022-12-07T22:46:47.111Z,4.12
2022-12-07T22:49:14.301Z,4.19
2022-12-07T22:51:41.773Z,4.16
2022-12-07T22:54:16.880Z,4.09
2022-12-07T22:56:45.395Z,4.11
2022-12-07T22:59:14.626Z,4.15
2022-12-07T23:01:42.291Z,4.16
2022-12-07T23:04:10.482Z,4.10
2022-12-07T23:06:38.195Z,4.13
2022-12-07T23:09:10.635Z,4.19
2022-12-07T23:12:03.908Z,4.27
2022-12-07T23:14:36.941Z,4.35
2022-12-07T23:17:05.095Z,4.33
2022-12-07T23:19:33.135Z,4.25
2022-12-07T23:22:00.377Z,4.22
2022-12-07T23:24:27.965Z,4.24
2022-12-07T23:26:57.842Z,4.19
2022-12-07T23:29:24.975Z,4.16
2022-12-07T23:31:52.045Z,4.17
2022-12-07T23:34:19.347Z,4.21
2022-12-07T23:36:46.471Z,4.25
2022-12-07T23:39:13.699Z,4.32
2022-12-07T23:41:40.764Z,4.33
2022-12-07T23:44:08.240Z,4.38
2022-12-07T23:46:35.504Z,4.40
2022-12-07T23:49:05.690Z,4.42
2022-12-07T23:51:33.559Z,4.46
2022-12-07T23:54:04.571Z,4.48
2022-12-07T23:56:34.384Z,4.45
2022-12-07T23:59:04.023Z,4.44
